.
WxDataArchive / Data Records for 2009-05-15
2009-05-14 May 2009 2009-05-16

Data Records for Friday, 15 May 2009

Time	Temp	Chill	HIndex	Humid	Dewpt	 Wind 	HiWind	WindDir	Rain 	Barom 
-----	----	-----	------	-----	-----	------	------	-------	-----	----- 
00:00	51.4	51.4	51.4	84	46.7	0	0	---	0.00	30.178 
00:05	51.1	51.1	51.1	84	46.4	0	0	---	0.00	30.178 
00:10	51.0	51.0	51.0	85	46.7	0	0	---	0.00	30.178 
00:15	50.8	50.8	50.8	85	46.5	0	0	---	0.00	30.180 
00:20	50.7	50.7	50.7	86	46.7	0	0	---	0.00	30.180 
00:25	50.5	50.5	50.5	86	46.5	0	0	---	0.00	30.180 
00:30	50.4	50.4	50.4	87	46.7	0	0	---	0.00	30.182 
00:35	50.2	50.2	50.2	87	46.5	0	0	---	0.00	30.182 
00:40	50.1	50.1	50.1	87	46.4	0	0	---	0.00	30.182 
00:45	49.9	49.9	49.9	88	46.5	0	0	---	0.00	30.191 
00:50	49.8	49.8	49.8	88	46.4	0	0	---	0.00	30.191 
00:55	49.8	49.8	49.8	88	46.4	0	0	---	0.00	30.191 
01:00	49.6	49.6	49.6	89	46.5	0	0	---	0.00	30.194 
01:05	49.5	49.5	49.5	89	46.4	0	0	---	0.00	30.194 
01:10	49.4	49.4	49.4	89	46.3	0	0	---	0.00	30.194 
01:15	49.2	49.2	49.2	90	46.4	0	0	---	0.00	30.193 
01:20	49.2	49.2	49.2	90	46.4	0	0	---	0.00	30.193 
01:25	49.1	49.1	49.1	90	46.3	0	0	---	0.00	30.193 
01:30	48.9	48.9	48.9	90	46.1	0	0	---	0.00	30.193 
01:35	48.8	48.8	48.8	91	46.3	0	0	---	0.00	30.193 
01:40	48.6	48.6	48.6	91	46.1	0	0	---	0.00	30.193 
01:45	48.6	48.6	48.6	91	46.1	0	0	---	0.00	30.191 
01:50	48.5	48.5	48.5	91	46.0	0	0	---	0.00	30.191 
01:55	48.3	48.3	48.3	91	45.8	0	0	---	0.00	30.191 
02:00	48.2	48.2	48.2	92	46.0	0	0	---	0.00	30.192 
02:05	48.0	48.0	48.0	92	45.8	0	0	---	0.00	30.192 
02:10	48.0	48.0	48.0	92	45.8	0	0	---	0.00	30.192 
02:15	48.0	48.0	48.0	92	45.8	0	0	---	0.00	30.183 
02:20	47.9	47.9	47.9	92	45.7	0	0	---	0.00	30.183 
02:25	47.7	47.7	47.7	92	45.5	0	0	---	0.00	30.183 
02:30	47.7	47.7	47.7	92	45.5	0	0	---	0.00	30.182 
02:35	47.6	47.6	47.6	92	45.4	0	0	---	0.00	30.182 
02:40	47.4	47.4	47.4	92	45.2	0	0	---	0.00	30.182 
02:45	47.4	47.4	47.4	92	45.2	0	0	---	0.00	30.182 
02:50	47.3	47.3	47.3	93	45.4	0	0	---	0.00	30.182 
02:55	47.3	47.3	47.3	93	45.4	0	0	---	0.00	30.182 
03:00	47.3	47.3	47.3	93	45.4	0	0	---	0.00	30.183 
03:05	47.3	47.3	47.3	93	45.4	0	0	---	0.00	30.183 
03:10	47.3	47.3	47.3	93	45.4	0	0	---	0.00	30.183 
03:15	47.1	47.1	47.1	93	45.2	0	0	---	0.00	30.183 
03:20	47.1	47.1	47.1	93	45.2	0	0	---	0.00	30.183 
03:25	47.0	47.0	47.0	93	45.1	0	0	---	0.00	30.183 
03:30	47.0	47.0	47.0	93	45.1	0	0	---	0.00	30.182 
03:35	47.0	47.0	47.0	93	45.1	0	0	---	0.00	30.182 
03:40	46.8	46.8	46.8	94	45.2	0	0	---	0.00	30.182 
03:45	46.8	46.8	46.8	94	45.2	0	0	---	0.00	30.186 
03:50	46.8	46.8	46.8	94	45.2	0	0	---	0.00	30.186 
03:55	46.7	46.7	46.7	94	45.1	0	0	---	0.00	30.186 
04:00	46.5	46.5	46.5	94	44.9	0	0	---	0.00	30.187 
04:05	46.5	46.5	46.5	94	44.9	0	0	---	0.00	30.187 
04:10	46.4	46.4	46.4	94	44.8	0	0	---	0.00	30.187 
04:15	46.2	46.2	46.2	94	44.6	0	0	---	0.00	30.190 
04:20	46.2	46.2	46.2	94	44.6	0	0	---	0.00	30.190 
04:25	46.1	46.1	46.1	94	44.5	0	0	---	0.00	30.190 
04:30	46.0	46.0	46.0	94	44.4	0	0	---	0.00	30.189 
04:35	46.0	46.0	46.0	94	44.4	0	0	---	0.00	30.189 
04:40	46.0	46.0	46.0	94	44.4	0	0	---	0.00	30.189 
04:45	46.0	46.0	46.0	94	44.4	0	0	---	0.00	30.186 
04:50	45.8	45.8	45.8	94	44.2	0	0	---	0.00	30.186 
04:55	45.7	45.7	45.7	94	44.1	0	0	---	0.00	30.186 
05:00	45.7	45.7	45.7	94	44.1	0	0	---	0.00	30.186 
05:05	45.8	45.8	45.8	95	44.4	0	0	---	0.00	30.186 
05:10	46.0	46.0	46.0	95	44.6	0	0	---	0.00	30.186 
05:15	46.1	46.1	46.1	95	44.7	0	0	---	0.00	30.190 
05:20	46.2	46.2	46.2	95	44.8	0	0	---	0.00	30.190 
05:25	46.4	46.4	46.4	95	45.0	0	0	---	0.00	30.190 
05:30	46.4	46.4	46.4	95	45.0	0	0	---	0.00	30.190 
05:35	46.5	46.5	46.5	95	45.1	0	0	---	0.00	30.190 
05:40	46.8	46.8	46.8	95	45.4	0	0	---	0.00	30.190 
05:45	47.0	47.0	47.0	95	45.6	0	0	---	0.00	30.186 
05:50	47.0	47.0	47.0	95	45.6	0	0	---	0.00	30.186 
05:55	47.1	47.1	47.1	95	45.7	0	0	---	0.00	30.186 
06:00	47.0	47.0	47.0	95	45.6	0	0	---	0.00	30.194 
06:05	47.0	47.0	47.0	95	45.6	0	0	---	0.00	30.194 
06:10	46.7	46.7	46.7	95	45.3	0	0	---	0.00	30.194 
06:15	46.5	46.5	46.5	95	45.1	0	0	---	0.00	30.195 
06:20	46.4	46.4	46.4	95	45.0	0	0	---	0.00	30.195 
06:25	46.2	46.2	46.2	95	44.8	0	0	---	0.00	30.195 
06:30	46.1	46.1	46.1	95	44.7	0	0	---	0.00	30.198 
06:35	46.1	46.1	46.1	95	44.7	0	0	---	0.00	30.198 
06:40	46.1	46.1	46.1	95	44.7	0	0	---	0.00	30.198 
06:45	46.0	46.0	46.0	95	44.6	0	0	---	0.00	30.209 
06:50	46.1	46.1	46.1	95	44.7	0	0	---	0.00	30.209 
06:55	46.4	46.4	46.4	96	45.3	0	0	---	0.00	30.209 
07:00	46.5	46.5	46.5	96	45.4	0	0	---	0.00	30.214 
07:05	47.0	47.0	47.0	96	45.9	0	0	---	0.00	30.214 
07:10	47.4	47.4	47.4	96	46.3	0	0	---	0.00	30.214 
07:15	47.9	47.9	47.9	96	46.8	0	0	---	0.00	30.219 
07:20	48.5	48.5	48.5	96	47.4	0	1	292	0.00	30.219 
07:25	48.9	48.9	48.9	96	47.8	0	0	---	0.00	30.219 
07:30	49.2	49.2	49.2	96	48.1	0	0	---	0.00	30.228 
07:35	49.5	49.5	49.5	96	48.4	0	1	292	0.00	30.228 
07:40	49.6	49.6	49.6	96	48.5	0	1	292	0.00	30.228 
07:45	49.9	49.9	49.9	96	48.8	0	2	292	0.00	30.229 
07:50	50.2	50.2	50.2	96	49.1	0	2	292	0.00	30.229 
07:55	50.4	50.4	50.4	96	49.3	0	1	292	0.00	30.229 
08:00	50.7	50.7	50.7	96	49.6	0	0	---	0.00	30.228 
08:05	51.0	51.0	51.0	95	49.6	0	2	292	0.00	30.228 
08:10	51.1	51.1	51.1	95	49.7	1	3	292	0.00	30.228 
08:15	51.3	51.3	51.3	93	49.3	1	2	292	0.00	30.228 
08:20	51.6	51.6	51.6	92	49.4	0	2	135	0.00	30.228 
08:25	52.2	52.2	52.2	90	49.4	1	3	135	0.00	30.228 
08:30	52.9	52.9	52.9	88	49.4	1	3	135	0.00	30.225 
08:35	53.3	53.3	53.3	87	49.5	0	3	45	0.00	30.225 
08:40	53.8	53.8	53.8	86	49.7	0	2	45	0.00	30.225 
08:45	54.1	54.1	54.1	84	49.4	1	3	45	0.00	30.227 
08:50	54.5	54.5	54.5	83	49.4	0	1	45	0.00	30.227 
08:55	55.0	55.0	55.0	81	49.3	1	3	68	0.00	30.227 
09:00	55.4	55.4	55.4	80	49.3	1	3	68	0.00	30.231 
09:05	55.9	55.9	55.9	78	49.1	1	4	68	0.00	30.231 
09:10	56.2	56.2	56.2	77	49.1	1	3	112	0.00	30.231 
09:15	56.5	56.5	56.5	76	49.0	1	4	112	0.00	30.234 
09:20	57.0	57.0	57.0	76	49.5	1	3	68	0.00	30.234 
09:25	57.5	57.5	57.5	75	49.6	2	3	68	0.00	30.234 
09:30	57.8	57.8	57.8	73	49.2	1	4	90	0.00	30.230 
09:35	58.1	58.1	58.1	73	49.5	1	4	135	0.00	30.230 
09:40	58.4	58.4	58.4	73	49.8	1	3	90	0.00	30.230 
09:45	58.9	58.9	58.9	74	50.6	0	3	90	0.00	30.229 
09:50	59.3	59.3	59.3	70	49.5	1	4	90	0.00	30.229 
09:55	59.6	59.6	59.6	69	49.4	1	3	90	0.00	30.229 
10:00	60.1	60.1	60.1	69	49.9	1	2	90	0.00	30.229 
10:05	61.0	61.0	61.0	67	50.0	2	4	112	0.00	30.229 
10:10	61.8	61.8	61.8	65	49.9	2	5	112	0.00	30.229 
10:15	62.4	62.4	62.4	66	50.9	2	5	90	0.00	30.229 
10:20	63.2	63.2	63.2	62	50.0	2	5	90	0.00	30.229 
10:25	63.2	63.2	63.2	64	50.8	2	4	135	0.00	30.229 
10:30	63.2	63.2	63.2	63	50.4	2	4	112	0.00	30.214 
10:35	63.9	63.9	63.9	62	50.6	1	3	90	0.00	30.214 
10:40	64.7	64.7	64.7	60	50.5	2	5	90	0.00	30.214 
10:45	65.5	65.5	65.5	58	50.3	2	4	135	0.00	30.211 
10:50	66.1	66.1	66.1	58	50.9	1	2	112	0.00	30.211 
10:55	66.9	66.9	66.9	58	51.6	2	3	112	0.00	30.211 
11:00	67.1	67.1	67.1	55	50.4	2	5	90	0.00	30.204 
11:05	67.1	67.1	67.1	57	51.3	2	5	90	0.00	30.204 
11:10	67.3	67.3	67.3	58	52.0	2	5	90	0.00	30.204 
11:15	67.9	67.9	67.9	52	49.6	1	4	112	0.00	30.196 
11:20	67.8	67.8	67.8	56	51.5	2	5	112	0.00	30.196 
11:25	67.4	67.4	67.4	54	50.2	2	4	112	0.00	30.196 
11:30	67.4	67.4	67.4	54	50.2	2	5	90	0.00	30.193 
11:35	67.4	67.4	67.4	53	49.7	1	4	112	0.00	30.193 
11:40	67.8	67.8	67.8	52	49.5	1	4	90	0.00	30.193 
11:45	68.3	68.3	68.3	51	49.5	2	5	90	0.00	30.192 
11:50	68.8	68.8	68.8	50	49.4	2	4	90	0.00	30.192 
11:55	69.6	69.6	69.6	49	49.6	2	4	90	0.00	30.192 
12:00	70.1	70.1	70.1	48	49.5	2	5	90	0.00	30.184 
12:05	70.6	70.6	70.6	48	49.9	2	4	112	0.00	30.184 
12:10	70.6	70.6	70.6	46	48.8	2	5	90	0.00	30.184 
12:15	70.1	70.1	70.1	48	49.5	2	4	112	0.00	30.177 
12:20	69.9	69.9	69.9	47	48.7	2	7	112	0.00	30.177 
12:25	70.6	70.6	70.6	47	49.4	0	3	292	0.00	30.177 
12:30	70.9	70.9	70.9	45	48.5	1	4	90	0.00	30.169 
12:35	70.6	70.6	70.6	46	48.8	2	4	90	0.00	30.169 
12:40	69.9	69.9	69.9	49	49.9	2	4	68	0.00	30.169 
12:45	69.8	69.8	69.8	48	49.2	2	7	112	0.00	30.161 
12:50	69.6	69.6	69.6	47	48.5	2	5	112	0.00	30.161 
12:55	69.3	69.3	69.3	46	47.6	2	5	90	0.00	30.161 
13:00	69.1	69.1	69.1	48	48.6	2	5	90	0.00	30.154 
13:05	69.3	69.3	69.3	49	49.3	1	3	90	0.00	30.154 
13:10	69.4	69.4	69.4	47	48.3	2	5	90	0.00	30.154 
13:15	69.3	69.3	69.3	47	48.2	2	6	112	0.00	30.162 
13:20	69.1	69.1	69.1	48	48.6	1	4	112	0.00	30.162 
13:25	69.3	69.3	69.3	47	48.2	1	9	90	0.00	30.162 
13:30	69.4	69.4	69.4	46	47.7	1	4	112	0.00	30.163 
13:35	69.6	69.6	69.6	46	47.9	1	4	112	0.00	30.163 
13:40	69.6	69.6	69.6	47	48.5	1	3	248	0.00	30.163 
13:45	69.4	69.4	69.4	47	48.3	0	1	248	0.00	30.164 
13:50	69.4	69.4	69.4	46	47.7	1	3	90	0.00	30.164 
13:55	69.6	69.6	69.6	46	47.9	0	2	90	0.00	30.164 
14:00	69.8	69.8	69.8	46	48.1	1	3	112	0.00	30.157 
14:05	70.3	70.3	70.3	47	49.1	0	1	112	0.00	30.157 
14:10	70.4	70.4	70.4	46	48.6	1	2	292	0.00	30.157 
14:15	70.1	70.1	70.1	46	48.3	1	3	292	0.00	30.164 
14:20	70.1	70.1	70.1	44	47.2	1	3	90	0.00	30.164 
14:25	69.9	69.9	69.9	46	48.2	0	2	90	0.00	30.164 
14:30	69.6	69.6	69.6	46	47.9	0	4	90	0.00	30.159 
14:35	69.4	69.4	69.4	48	48.8	0	1	248	0.00	30.159 
14:40	68.9	68.9	68.9	47	47.8	1	3	248	0.00	30.159 
14:45	68.8	68.8	68.8	50	49.4	1	2	248	0.00	30.125 
14:50	68.8	68.8	68.8	54	51.5	0	2	248	0.00	30.125 
14:55	69.1	69.1	69.1	54	51.7	0	3	112	0.00	30.125 
15:00	69.6	69.6	69.6	51	50.7	1	3	112	0.00	30.117 
15:05	69.9	69.9	69.9	46	48.2	1	4	135	0.00	30.117 
15:10	70.3	70.3	70.3	48	49.7	1	3	135	0.00	30.117 
15:15	70.4	70.4	70.4	44	47.4	1	3	135	0.00	30.115 
15:20	70.8	70.8	70.8	45	48.4	1	3	68	0.00	30.115 
15:25	70.9	70.9	70.9	44	47.9	1	3	112	0.00	30.115 
15:30	70.9	70.9	70.9	45	48.5	1	3	112	0.00	30.102 
15:35	71.1	71.1	71.1	48	50.4	1	3	112	0.00	30.102 
15:40	71.3	71.3	71.3	45	48.8	1	3	112	0.00	30.102 
15:45	71.6	71.6	71.6	44	48.5	1	4	112	0.00	30.090 
15:50	71.8	71.8	71.8	45	49.3	2	4	90	0.00	30.090 
15:55	72.1	72.1	72.1	47	50.7	1	3	90	0.00	30.090 
16:00	72.3	72.3	72.3	45	49.8	2	5	90	0.00	30.087 
16:05	72.1	72.1	72.1	43	48.4	1	3	90	0.00	30.087 
16:10	72.1	72.1	72.1	45	49.6	0	1	90	0.00	30.087 
16:15	72.1	72.1	72.1	46	50.2	1	3	90	0.00	30.075 
16:20	72.3	72.3	72.3	43	48.5	1	4	90	0.00	30.075 
16:25	72.3	72.3	72.3	44	49.2	0	1	90	0.00	30.075 
16:30	72.5	72.5	72.5	44	49.3	0	1	90	0.00	30.070 
16:35	72.3	72.3	72.3	44	49.2	0	0	---	0.00	30.070 
16:40	72.0	72.0	72.0	46	50.1	0	1	90	0.00	30.070 
16:45	71.5	71.5	71.5	47	50.2	0	0	---	0.00	30.075 
16:50	70.9	70.9	70.9	51	51.9	0	1	90	0.00	30.075 
16:55	70.1	70.1	70.1	49	50.0	1	4	338	0.00	30.075 
17:00	69.3	69.3	69.3	51	50.4	0	2	338	0.00	30.064 
17:05	68.9	68.9	68.9	54	51.6	0	4	338	0.00	30.064 
17:10	68.6	68.6	68.6	53	50.8	1	3	68	0.00	30.064 
17:15	68.3	68.3	68.3	53	50.5	1	4	45	0.00	30.054 
17:20	68.1	68.1	68.1	54	50.8	1	5	90	0.00	30.054 
17:25	67.9	67.9	67.9	54	50.6	1	4	90	0.00	30.054 
17:30	67.8	67.8	67.8	55	51.0	1	4	112	0.00	30.050 
17:35	67.4	67.4	67.4	56	51.1	1	5	112	0.00	30.050 
17:40	67.3	67.3	67.3	57	51.5	1	3	68	0.00	30.050 
17:45	67.3	67.3	67.3	57	51.5	1	4	90	0.00	30.041 
17:50	67.3	67.3	67.3	57	51.5	1	5	112	0.00	30.041 
17:55	67.3	67.3	67.3	58	52.0	1	3	112	0.00	30.041 
18:00	67.3	67.3	67.3	59	52.5	1	6	90	0.00	30.048 
18:05	67.1	67.1	67.1	58	51.8	1	3	90	0.00	30.048 
18:10	67.3	67.3	67.3	58	52.0	2	6	90	0.00	30.048 
18:15	67.3	67.3	67.3	58	52.0	2	4	90	0.00	30.033 
18:20	67.3	67.3	67.3	58	52.0	3	7	90	0.00	30.033 
18:25	67.3	67.3	67.3	58	52.0	2	10	112	0.00	30.033 
18:30	67.4	67.4	67.4	58	52.1	2	6	90	0.00	30.023 
18:35	67.4	67.4	67.4	58	52.1	2	5	112	0.00	30.023 
18:40	67.6	67.6	67.6	57	51.8	3	9	90	0.00	30.023 
18:45	67.6	67.6	67.6	57	51.8	2	4	90	0.00	30.020 
18:50	67.6	67.6	67.6	57	51.8	1	4	90	0.00	30.020 
18:55	67.4	67.4	67.4	56	51.1	2	7	68	0.00	30.020 
19:00	67.3	67.3	67.3	55	50.6	2	4	112	0.00	30.017 
19:05	67.1	67.1	67.1	56	50.9	2	9	112	0.00	30.017 
19:10	66.9	66.9	66.9	57	51.2	1	7	68	0.00	30.017 
19:15	66.8	66.8	66.8	58	51.5	1	7	112	0.00	30.010 
19:20	66.6	66.6	66.6	58	51.4	1	5	112	0.00	30.010 
19:25	66.4	66.4	66.4	58	51.2	2	7	90	0.00	30.010 
19:30	66.3	66.3	66.3	58	51.1	4	9	90	0.00	30.007 
19:35	66.1	66.1	66.1	59	51.3	3	5	90	0.00	30.007 
19:40	65.8	65.8	65.8	59	51.1	3	7	112	0.00	30.007 
19:45	65.6	65.6	65.6	61	51.8	2	7	112	0.00	30.005 
19:50	65.5	65.5	65.5	61	51.7	3	8	112	0.00	30.005 
19:55	65.2	65.2	65.2	62	51.8	4	8	90	0.00	30.005 
20:00	65.0	65.0	65.0	63	52.1	4	7	90	0.00	29.993 
20:05	64.8	64.8	64.8	64	52.3	3	8	90	0.00	29.993 
20:10	64.7	64.7	64.7	65	52.7	3	9	112	0.00	29.993 
20:15	64.3	64.3	64.3	66	52.7	4	7	90	0.00	29.985 
20:20	64.2	64.2	64.2	66	52.6	2	7	112	0.00	29.985 
20:25	63.9	63.9	63.9	67	52.7	3	10	112	0.00	29.985 
20:30	63.5	63.5	63.5	67	52.3	4	11	90	0.00	29.975 
20:35	63.2	63.2	63.2	68	52.5	4	10	90	0.00	29.975 
20:40	62.9	62.9	62.9	68	52.2	3	8	112	0.00	29.975 
20:45	62.7	62.7	62.7	68	52.0	3	7	90	0.00	29.974 
20:50	62.6	62.6	62.6	68	51.9	4	10	112	0.00	29.974 
20:55	62.4	62.4	62.4	69	52.1	3	9	90	0.00	29.974 
21:00	62.3	62.3	62.3	69	52.0	3	9	90	0.00	29.960 
21:05	62.0	62.0	62.0	74	53.6	2	7	112	0.01	29.960 
21:10	61.3	61.3	61.3	76	53.7	2	7	90	0.00	29.960 
21:15	60.7	60.7	60.7	77	53.4	2	6	90	0.00	29.945 
21:20	60.5	60.5	60.5	77	53.2	3	6	90	0.00	29.945 
21:25	60.5	60.5	60.5	78	53.6	2	5	90	0.00	29.945 
21:30	60.4	60.4	60.4	77	53.2	3	6	90	0.00	29.940 
21:35	60.4	60.4	60.4	77	53.2	3	7	90	0.00	29.940 
21:40	60.4	60.4	60.4	78	53.5	2	6	112	0.00	29.940 
21:45	60.4	60.4	60.4	78	53.5	2	6	90	0.00	29.924 
21:50	60.4	60.4	60.4	78	53.5	2	5	90	0.00	29.924 
21:55	60.5	60.5	60.5	79	54.0	3	5	90	0.00	29.924 
22:00	60.5	60.5	60.5	79	54.0	3	5	90	0.00	29.907 
22:05	60.9	60.9	60.9	77	53.6	4	10	90	0.00	29.907 
22:10	61.2	61.2	61.2	77	53.9	2	5	90	0.00	29.907 
22:15	61.3	61.3	61.3	76	53.7	3	6	112	0.00	29.901 
22:20	61.5	61.5	61.5	75	53.5	3	7	90	0.00	29.901 
22:25	61.3	61.3	61.3	75	53.3	3	10	90	0.00	29.901 
22:30	61.2	61.2	61.2	75	53.2	2	6	90	0.00	29.901 
22:35	61.0	61.0	61.0	76	53.4	2	5	68	0.00	29.901 
22:40	60.7	60.7	60.7	77	53.4	1	4	90	0.00	29.901 
22:45	60.5	60.5	60.5	77	53.2	2	5	90	0.00	29.886 
22:50	60.5	60.5	60.5	77	53.2	2	4	90	0.00	29.886 
22:55	60.5	60.5	60.5	77	53.2	1	3	90	0.00	29.886 
23:00	60.5	60.5	60.5	77	53.2	1	5	90	0.00	29.887 
23:05	60.4	60.4	60.4	77	53.2	0	2	90	0.00	29.887 
23:10	60.4	60.4	60.4	79	53.9	0	2	90	0.00	29.887 
23:15	60.4	60.4	60.4	80	54.2	0	3	90	0.00	29.892 
23:20	60.1	60.1	60.1	80	53.9	0	2	90	0.00	29.892 
23:25	59.9	59.9	59.9	81	54.1	0	1	90	0.01	29.892 
23:30	59.6	59.6	59.6	83	54.4	0	1	90	0.00	29.884 
23:35	59.3	59.3	59.3	83	54.1	0	1	90	0.00	29.884 
23:40	59.0	59.0	59.0	84	54.2	0	2	90	0.00	29.884 
23:45	58.9	58.9	58.9	84	54.1	1	2	90	0.00	29.884 
23:50	58.6	58.6	58.6	84	53.8	0	2	112	0.00	29.884 
23:55	58.4	58.4	58.4	84	53.6	0	1	112	0.00	29.884 

CoCoRaHS
IN-AL-39
A2 Web Hosting
Creative Commons License
GoDaddy
search engine by freefind advanced

loaded 2018-11-20 06:24:19 • last modified 2010-11-18 10:43:29
Privacy PolicyDisclaimer
• wx.awcolley.com is powered by PmWiki v.2002016 •
• all content (unless otherwise noted) © 2018 A W Colley